createdAt,value
2022-09-12T00:02:12.464Z,98221.00
2022-09-12T00:04:47.734Z,98215.00
2022-09-12T00:07:22.663Z,98223.00
2022-09-12T00:09:57.677Z,98224.00
2022-09-12T00:12:32.650Z,98209.00
2022-09-12T00:15:08.527Z,98216.00
2022-09-12T00:17:43.526Z,98215.00
2022-09-12T00:20:18.593Z,98220.00
2022-09-12T00:22:53.526Z,98208.00
2022-09-12T00:25:30.673Z,98214.00
2022-09-12T00:28:05.670Z,98219.00
2022-09-12T00:30:43.058Z,98217.00
2022-09-12T00:33:18.667Z,98215.00
2022-09-12T00:35:53.618Z,98212.00
2022-09-12T00:38:29.243Z,98210.00
2022-09-12T00:41:06.313Z,98207.00
2022-09-12T00:43:48.133Z,98206.00
2022-09-12T00:46:35.927Z,98196.00
2022-09-12T00:49:41.441Z,98200.00
2022-09-12T00:53:01.094Z,98197.00
2022-09-12T00:55:41.863Z,98196.00
2022-09-12T00:58:35.722Z,98191.00
2022-09-12T01:01:10.851Z,98187.00
2022-09-12T01:03:46.021Z,98181.00
2022-09-12T01:06:40.756Z,98186.00
2022-09-12T01:09:22.876Z,98188.00
2022-09-12T01:11:59.103Z,98184.00
2022-09-12T01:14:35.416Z,98181.00
2022-09-12T01:17:14.980Z,98177.00
2022-09-12T01:20:17.515Z,98175.00
2022-09-12T01:23:33.149Z,98177.00
2022-09-12T01:26:59.782Z,98166.00
2022-09-12T01:29:44.684Z,98166.00
2022-09-12T01:32:43.646Z,98158.00
2022-09-12T01:35:50.819Z,98161.00
2022-09-12T01:38:40.634Z,98166.00
2022-09-12T01:41:59.594Z,98166.00
2022-09-12T01:44:37.547Z,98165.00
2022-09-12T01:47:24.081Z,98160.00
2022-09-12T01:50:20.047Z,98158.00
2022-09-12T01:53:05.275Z,98152.00
2022-09-12T01:55:51.306Z,98153.00
2022-09-12T01:59:02.664Z,98149.00
2022-09-12T02:01:46.804Z,98143.00
2022-09-12T02:04:24.944Z,98145.00
2022-09-12T02:07:08.621Z,98145.00
2022-09-12T02:09:54.879Z,98153.00
2022-09-12T02:12:38.789Z,98141.00
2022-09-12T02:15:18.111Z,98137.00
2022-09-12T02:17:56.731Z,98132.00
2022-09-12T02:20:47.859Z,98140.00
2022-09-12T02:23:29.450Z,98138.00
2022-09-12T02:26:20.813Z,98130.00
2022-09-12T02:28:58.175Z,98137.00
2022-09-12T02:31:47.577Z,98134.00
2022-09-12T02:34:33.486Z,98138.00
2022-09-12T02:37:41.801Z,98129.00
2022-09-12T02:40:17.842Z,98131.00
2022-09-12T02:42:52.993Z,98130.00
2022-09-12T02:45:29.441Z,98129.00
2022-09-12T02:48:18.630Z,98127.00
2022-09-12T02:50:54.511Z,98125.00
2022-09-12T02:53:29.743Z,98127.00
2022-09-12T02:56:11.302Z,98128.00
2022-09-12T02:58:47.178Z,98130.00
2022-09-12T03:02:03.183Z,98121.00
2022-09-12T03:04:53.405Z,98125.00
2022-09-12T03:07:59.400Z,98117.00
2022-09-12T03:10:41.904Z,98109.00
2022-09-12T03:13:49.921Z,98117.00
2022-09-12T03:16:35.388Z,98120.00
2022-09-12T03:19:23.936Z,98116.00
2022-09-12T03:22:41.691Z,98125.00
2022-09-12T03:25:32.278Z,98123.00
2022-09-12T03:28:14.958Z,98131.00
2022-09-12T03:30:54.785Z,98129.00
2022-09-12T03:33:29.721Z,98128.00
2022-09-12T03:36:05.915Z,98128.00
2022-09-12T03:38:40.814Z,98125.00
2022-09-12T03:41:15.795Z,98119.00
2022-09-12T03:43:50.750Z,98123.00
2022-09-12T03:46:25.685Z,98126.00
2022-09-12T03:49:00.684Z,98126.00
2022-09-12T03:51:35.589Z,98126.00
2022-09-12T03:54:11.381Z,98127.00
2022-09-12T03:56:46.518Z,98119.00
2022-09-12T03:59:21.414Z,98124.00
2022-09-12T04:01:56.420Z,98126.00
2022-09-12T04:04:32.135Z,98128.00
2022-09-12T04:07:07.079Z,98124.00
2022-09-12T04:09:41.992Z,98123.00
2022-09-12T04:12:17.034Z,98119.00
2022-09-12T04:14:51.925Z,98120.00
2022-09-12T04:17:26.928Z,98127.00
2022-09-12T04:20:02.274Z,98122.00
2022-09-12T04:22:37.202Z,98122.00
2022-09-12T04:25:13.280Z,98121.00
2022-09-12T04:27:48.161Z,98118.00
2022-09-12T04:30:23.090Z,98130.00
2022-09-12T04:32:58.050Z,98113.00
2022-09-12T04:35:35.946Z,98119.00
2022-09-12T04:38:11.363Z,98113.00
2022-09-12T04:40:46.295Z,98118.00
2022-09-12T04:43:21.227Z,98120.00
2022-09-12T04:45:56.201Z,98116.00
2022-09-12T04:48:31.102Z,98117.00
2022-09-12T04:51:13.607Z,98119.00
2022-09-12T04:53:52.270Z,98120.00
2022-09-12T04:56:28.544Z,98108.00
2022-09-12T04:59:03.568Z,98109.00
2022-09-12T05:01:39.059Z,98112.00
2022-09-12T05:04:14.410Z,98119.00
2022-09-12T05:06:49.609Z,98112.00
2022-09-12T05:09:24.547Z,98110.00
2022-09-12T05:12:04.967Z,98114.00
2022-09-12T05:14:40.599Z,98106.00
2022-09-12T05:17:15.523Z,98112.00
2022-09-12T05:19:50.858Z,98110.00
2022-09-12T05:22:25.768Z,98110.00
2022-09-12T05:25:00.734Z,98109.00
2022-09-12T05:27:35.637Z,98114.00
2022-09-12T05:30:11.726Z,98114.00
2022-09-12T05:32:46.710Z,98125.00
2022-09-12T05:35:21.708Z,98126.00
2022-09-12T05:37:56.655Z,98124.00
2022-09-12T05:40:32.235Z,98114.00
2022-09-12T05:43:07.831Z,98118.00
2022-09-12T05:45:43.381Z,98125.00
2022-09-12T05:48:18.410Z,98130.00
2022-09-12T05:50:53.366Z,98130.00
2022-09-12T05:53:31.028Z,98130.00
2022-09-12T05:56:11.707Z,98139.00
2022-09-12T05:58:51.067Z,98140.00
2022-09-12T06:01:27.624Z,98134.00
2022-09-12T06:04:06.564Z,98137.00
2022-09-12T06:06:45.401Z,98136.00
2022-09-12T06:09:20.733Z,98128.00
2022-09-12T06:11:55.978Z,98137.00
2022-09-12T06:14:31.042Z,98124.00
2022-09-12T06:17:06.035Z,98130.00
2022-09-12T06:19:42.018Z,98122.00
2022-09-12T06:22:18.880Z,98121.00
2022-09-12T06:24:57.861Z,98118.00
2022-09-12T06:27:33.118Z,98132.00
2022-09-12T06:30:08.674Z,98127.00
2022-09-12T06:32:43.649Z,98114.00
2022-09-12T06:35:19.021Z,98115.00
2022-09-12T06:37:54.036Z,98122.00
2022-09-12T06:40:29.815Z,98126.00
2022-09-12T06:43:05.645Z,98125.00
2022-09-12T06:45:49.571Z,98115.00
2022-09-12T06:48:24.574Z,98121.00
2022-09-12T06:51:07.821Z,98131.00
2022-09-12T06:53:44.772Z,98121.00
2022-09-12T06:56:22.070Z,98128.00
2022-09-12T06:58:58.896Z,98131.00
2022-09-12T07:01:33.922Z,98131.00
2022-09-12T07:04:09.560Z,98142.00
2022-09-12T07:06:44.939Z,98133.00
2022-09-12T07:09:20.012Z,98129.00
2022-09-12T07:11:55.059Z,98122.00
2022-09-12T07:14:30.208Z,98130.00
2022-09-12T07:17:05.870Z,98121.00
2022-09-12T07:19:41.479Z,98121.00
2022-09-12T07:22:16.456Z,98119.00
2022-09-12T07:24:51.461Z,98123.00
2022-09-12T07:27:26.356Z,98130.00
2022-09-12T07:30:01.565Z,98126.00
2022-09-12T07:32:36.784Z,98120.00
2022-09-12T07:35:11.739Z,98128.00
2022-09-12T07:37:47.308Z,98122.00
2022-09-12T07:40:22.978Z,98121.00
2022-09-12T07:42:58.311Z,98128.00
2022-09-12T07:45:33.711Z,98115.00
2022-09-12T07:48:09.608Z,98124.00
2022-09-12T07:50:45.255Z,98130.00
2022-09-12T07:53:20.206Z,98124.00
2022-09-12T07:55:56.145Z,98124.00
2022-09-12T07:58:32.829Z,98114.00
2022-09-12T08:01:12.521Z,98115.00
2022-09-12T08:03:50.485Z,98116.00
2022-09-12T08:06:28.009Z,98112.00
2022-09-12T08:09:04.865Z,98126.00
2022-09-12T08:11:39.813Z,98119.00
2022-09-12T08:14:14.775Z,98121.00
2022-09-12T08:16:49.705Z,98123.00
2022-09-12T08:19:24.766Z,98120.00
2022-09-12T08:21:59.871Z,98113.00
2022-09-12T08:24:34.947Z,98118.00
2022-09-12T08:27:09.922Z,98111.00
2022-09-12T08:29:45.101Z,98113.00
2022-09-12T08:32:20.214Z,98108.00
2022-09-12T08:34:55.337Z,98101.00
2022-09-12T08:37:31.788Z,98118.00
2022-09-12T08:40:09.241Z,98114.00
2022-09-12T08:43:03.604Z,98122.00
2022-09-12T08:46:10.919Z,98117.00
2022-09-12T08:48:48.236Z,98111.00
2022-09-12T08:51:24.054Z,98105.00
2022-09-12T08:54:01.899Z,98094.00
2022-09-12T08:56:39.206Z,98103.00
2022-09-12T08:59:15.311Z,98097.00
2022-09-12T09:01:54.750Z,98097.00
2022-09-12T09:04:52.249Z,98102.00
2022-09-12T09:07:54.781Z,98102.00
2022-09-12T09:10:57.671Z,98098.00
2022-09-12T09:14:11.429Z,98100.00
2022-09-12T09:16:50.595Z,98087.00
2022-09-12T09:19:32.958Z,98097.00
2022-09-12T09:22:24.239Z,98095.00
2022-09-12T09:25:30.578Z,98093.00
2022-09-12T09:28:16.295Z,98092.00
2022-09-12T09:30:51.593Z,98092.00
2022-09-12T09:33:33.449Z,98093.00
2022-09-12T09:36:22.850Z,98091.00
2022-09-12T09:39:16.473Z,98085.00
2022-09-12T09:42:28.949Z,98092.00
2022-09-12T09:45:17.743Z,98088.00
2022-09-12T09:48:20.791Z,98093.00
2022-09-12T09:51:00.314Z,98091.00
2022-09-12T09:54:05.470Z,98093.00
2022-09-12T09:56:45.103Z,98087.00
2022-09-12T09:59:31.273Z,98091.00
2022-09-12T10:02:24.211Z,98091.00
2022-09-12T10:04:59.780Z,98091.00
2022-09-12T10:07:35.083Z,98088.00
2022-09-12T10:10:23.117Z,98077.00
2022-09-12T10:13:56.810Z,98073.00
2022-09-12T10:16:35.457Z,98078.00
2022-09-12T10:19:26.055Z,98075.00
2022-09-12T10:22:02.267Z,98068.00
2022-09-12T10:24:42.141Z,98077.00
2022-09-12T10:27:22.559Z,98076.00
2022-09-12T10:30:17.158Z,98078.00
2022-09-12T10:32:53.223Z,98078.00
2022-09-12T10:35:45.347Z,98080.00
2022-09-12T10:38:27.765Z,98073.00
2022-09-12T10:41:11.220Z,98061.00
2022-09-12T10:43:46.743Z,98070.00
2022-09-12T10:46:29.346Z,98060.00
2022-09-12T10:49:26.154Z,98058.00
2022-09-12T10:52:18.206Z,98054.00
2022-09-12T10:54:53.815Z,98052.00
2022-09-12T10:57:53.967Z,98057.00
2022-09-12T11:00:32.008Z,98053.00
2022-09-12T11:03:24.873Z,98044.00
2022-09-12T11:06:01.794Z,98038.00
2022-09-12T11:08:52.055Z,98040.00
2022-09-12T11:11:38.931Z,98033.00
2022-09-12T11:14:39.457Z,98037.00
2022-09-12T11:18:03.994Z,98037.00
2022-09-12T11:21:18.346Z,98026.00
2022-09-12T11:24:27.025Z,98024.00
2022-09-12T11:27:07.778Z,98021.00
2022-09-12T11:29:54.281Z,98014.00
2022-09-12T11:33:12.903Z,98013.00
2022-09-12T11:35:55.155Z,98003.00
2022-09-12T11:39:12.841Z,98011.00
2022-09-12T11:41:52.356Z,98005.00
2022-09-12T11:44:45.259Z,98009.00
2022-09-12T11:47:20.919Z,98002.00
2022-09-12T11:49:57.902Z,98004.00
2022-09-12T11:52:38.889Z,98005.00
2022-09-12T11:55:22.573Z,97996.00
2022-09-12T11:57:58.550Z,97993.00
2022-09-12T12:00:48.239Z,97993.00
2022-09-12T12:03:37.450Z,97989.00
2022-09-12T12:06:53.385Z,97985.00
2022-09-12T12:09:28.424Z,97996.00
2022-09-12T12:12:11.693Z,97990.00
2022-09-12T12:14:50.535Z,97997.00
2022-09-12T12:17:27.293Z,97987.00
2022-09-12T12:20:08.630Z,97989.00
2022-09-12T12:22:54.545Z,97975.00
2022-09-12T12:25:51.579Z,97970.00
2022-09-12T12:28:41.942Z,97967.00
2022-09-12T12:31:18.166Z,97979.00
2022-09-12T12:33:55.504Z,97979.00
2022-09-12T12:36:38.514Z,97976.00
2022-09-12T12:39:31.822Z,97973.00
2022-09-12T12:42:06.754Z,97966.00
2022-09-12T12:44:44.701Z,97967.00
2022-09-12T12:47:23.758Z,97964.00
2022-09-12T12:50:08.412Z,97957.00
2022-09-12T12:52:59.201Z,97957.00
2022-09-12T12:55:43.205Z,97955.00
2022-09-12T12:58:38.710Z,97960.00
2022-09-12T13:01:22.967Z,97956.00
2022-09-12T13:04:20.295Z,97948.00
2022-09-12T13:07:08.848Z,97945.00
2022-09-12T13:09:48.148Z,97940.00
2022-09-12T13:12:32.706Z,97944.00
2022-09-12T13:15:36.671Z,97938.00
2022-09-12T13:18:18.830Z,97929.00
2022-09-12T13:21:15.241Z,97928.00
2022-09-12T13:24:06.498Z,97928.00
2022-09-12T13:26:44.497Z,97936.00
2022-09-12T13:29:22.574Z,97926.00
2022-09-12T13:32:01.293Z,97928.00
2022-09-12T13:35:02.494Z,97925.00
2022-09-12T13:38:13.142Z,97917.00
2022-09-12T13:41:24.463Z,97911.00
2022-09-12T13:44:00.850Z,97918.00
2022-09-12T13:46:36.103Z,97914.00
2022-09-12T13:49:37.309Z,97910.00
2022-09-12T13:52:26.741Z,97907.00
2022-09-12T13:55:11.373Z,97897.00
2022-09-12T13:57:46.340Z,97895.00
2022-09-12T14:00:22.254Z,97893.00
2022-09-12T14:03:15.555Z,97892.00
2022-09-12T14:05:57.421Z,97894.00
2022-09-12T14:08:33.422Z,97888.00
2022-09-12T14:11:11.099Z,97886.00
2022-09-12T14:13:46.128Z,97889.00
2022-09-12T14:16:21.793Z,97887.00
2022-09-12T14:18:57.496Z,97887.00
2022-09-12T14:21:37.039Z,97881.00
2022-09-12T14:24:14.773Z,97882.00
2022-09-12T14:26:55.370Z,97881.00
2022-09-12T14:29:31.019Z,97877.00
2022-09-12T14:32:06.982Z,97876.00
2022-09-12T14:34:41.900Z,97871.00
2022-09-12T14:37:16.926Z,97873.00
2022-09-12T14:39:52.069Z,97870.00
2022-09-12T14:42:31.307Z,97866.00
2022-09-12T14:45:26.216Z,97868.00
2022-09-12T14:48:01.299Z,97863.00
2022-09-12T14:50:36.685Z,97867.00
2022-09-12T14:53:17.587Z,97867.00
2022-09-12T14:55:57.981Z,97857.00
2022-09-12T14:58:33.576Z,97851.00
2022-09-12T15:01:08.548Z,97853.00
2022-09-12T15:03:49.233Z,97851.00
2022-09-12T15:06:36.569Z,97854.00
2022-09-12T15:09:13.731Z,97853.00
2022-09-12T15:11:48.711Z,97855.00
2022-09-12T15:14:23.625Z,97854.00
2022-09-12T15:16:58.570Z,97844.00
2022-09-12T15:19:33.531Z,97844.00
2022-09-12T15:22:12.629Z,97839.00
2022-09-12T15:24:47.834Z,97840.00
2022-09-12T15:27:26.146Z,97837.00
2022-09-12T15:30:01.188Z,97844.00
2022-09-12T15:32:37.337Z,97842.00
2022-09-12T15:35:23.132Z,97840.00
2022-09-12T15:37:58.331Z,97839.00
2022-09-12T15:40:33.317Z,97827.00
2022-09-12T15:43:10.586Z,97833.00
2022-09-12T15:45:47.275Z,97835.00
2022-09-12T15:48:22.339Z,97834.00
2022-09-12T15:51:01.409Z,97829.00
2022-09-12T15:53:36.494Z,97826.00
2022-09-12T15:56:12.059Z,97818.00
2022-09-12T15:58:58.188Z,97817.00
2022-09-12T16:01:34.661Z,97813.00
2022-09-12T16:04:25.663Z,97817.00
2022-09-12T16:07:00.544Z,97813.00
2022-09-12T16:09:36.349Z,97814.00
2022-09-12T16:12:11.291Z,97807.00
2022-09-12T16:14:46.245Z,97806.00
2022-09-12T16:17:21.219Z,97808.00
2022-09-12T16:19:56.576Z,97804.00
2022-09-12T16:22:32.153Z,97804.00
2022-09-12T16:25:08.090Z,97798.00
2022-09-12T16:27:43.435Z,97796.00
2022-09-12T16:30:20.594Z,97791.00
2022-09-12T16:32:57.438Z,97798.00
2022-09-12T16:35:32.812Z,97799.00
2022-09-12T16:38:07.957Z,97795.00
2022-09-12T16:40:42.826Z,97796.00
2022-09-12T16:43:17.931Z,97793.00
2022-09-12T16:46:11.513Z,97794.00
2022-09-12T16:48:52.535Z,97784.00
2022-09-12T16:51:35.911Z,97786.00
2022-09-12T16:54:11.058Z,97789.00
2022-09-12T16:56:46.826Z,97779.00
2022-09-12T16:59:21.951Z,97782.00
2022-09-12T17:01:57.057Z,97779.00
2022-09-12T17:04:32.030Z,97784.00
2022-09-12T17:07:08.132Z,97783.00
2022-09-12T17:09:46.248Z,97787.00
2022-09-12T17:12:24.059Z,97786.00
2022-09-12T17:14:58.965Z,97788.00
2022-09-12T17:17:33.968Z,97788.00
2022-09-12T17:20:09.104Z,97790.00
2022-09-12T17:22:44.118Z,97787.00
2022-09-12T17:25:19.037Z,97781.00
2022-09-12T17:27:54.175Z,97782.00
2022-09-12T17:30:29.116Z,97784.00
2022-09-12T17:33:04.132Z,97783.00
2022-09-12T17:35:39.630Z,97791.00
2022-09-12T17:38:18.619Z,97784.00
2022-09-12T17:40:59.746Z,97782.00
2022-09-12T17:43:38.014Z,97788.00
2022-09-12T17:46:13.045Z,97790.00
2022-09-12T17:48:53.782Z,97785.00
2022-09-12T17:51:31.169Z,97788.00
2022-09-12T17:54:11.807Z,97791.00
2022-09-12T17:56:49.678Z,97798.00
2022-09-12T17:59:25.096Z,97797.00
2022-09-12T18:02:16.257Z,97800.00
2022-09-12T18:04:51.489Z,97801.00
2022-09-12T18:07:26.432Z,97801.00
2022-09-12T18:10:01.428Z,97801.00
2022-09-12T18:12:36.479Z,97802.00
2022-09-12T18:15:11.533Z,97801.00
2022-09-12T18:17:46.530Z,97802.00
2022-09-12T18:20:21.456Z,97793.00
2022-09-12T18:22:56.481Z,97799.00
2022-09-12T18:25:31.487Z,97797.00
2022-09-12T18:28:09.225Z,97810.00
2022-09-12T18:30:44.359Z,97804.00
2022-09-12T18:33:23.925Z,97797.00
2022-09-12T18:36:05.490Z,97804.00
2022-09-12T18:38:41.724Z,97794.00
2022-09-12T18:41:22.617Z,97807.00
2022-09-12T18:44:00.155Z,97811.00
2022-09-12T18:46:35.617Z,97803.00
2022-09-12T18:49:10.722Z,97799.00
2022-09-12T18:51:45.687Z,97804.00
2022-09-12T18:54:20.906Z,97802.00
2022-09-12T18:56:55.751Z,97798.00
2022-09-12T18:59:30.615Z,97801.00
2022-09-12T19:02:07.103Z,97803.00
2022-09-12T19:04:42.232Z,97801.00
2022-09-12T19:07:17.515Z,97799.00
2022-09-12T19:09:52.483Z,97798.00
2022-09-12T19:12:27.409Z,97801.00
2022-09-12T19:15:02.706Z,97800.00
2022-09-12T19:17:37.603Z,97810.00
2022-09-12T19:20:12.563Z,97811.00
2022-09-12T19:22:47.447Z,97809.00
2022-09-12T19:25:22.411Z,97814.00
2022-09-12T19:27:57.330Z,97813.00
2022-09-12T19:30:32.293Z,97809.00
2022-09-12T19:33:07.181Z,97804.00
2022-09-12T19:35:42.645Z,97798.00
2022-09-12T19:38:18.320Z,97803.00
2022-09-12T19:41:02.185Z,97804.00
2022-09-12T19:43:37.529Z,97802.00
2022-09-12T19:46:24.382Z,97802.00
2022-09-12T19:48:59.647Z,97797.00
2022-09-12T19:51:34.595Z,97791.00
2022-09-12T19:54:09.999Z,97801.00
2022-09-12T19:56:45.067Z,97789.00
2022-09-12T19:59:20.407Z,97791.00
2022-09-12T20:01:55.489Z,97790.00
2022-09-12T20:04:32.202Z,97784.00
2022-09-12T20:07:07.155Z,97793.00
2022-09-12T20:09:42.083Z,97791.00
2022-09-12T20:12:17.046Z,97792.00
2022-09-12T20:14:52.007Z,97799.00
2022-09-12T20:17:27.007Z,97804.00
2022-09-12T20:20:02.548Z,97799.00
2022-09-12T20:22:40.121Z,97801.00
2022-09-12T20:25:15.413Z,97794.00
2022-09-12T20:27:50.451Z,97793.00
2022-09-12T20:30:25.493Z,97792.00
2022-09-12T20:33:00.506Z,97787.00
2022-09-12T20:35:35.361Z,97776.00
2022-09-12T20:38:10.376Z,97778.00
2022-09-12T20:40:49.148Z,97766.00
2022-09-12T20:43:24.211Z,97760.00
2022-09-12T20:45:59.140Z,97766.00
2022-09-12T20:48:34.197Z,97766.00
2022-09-12T20:51:09.203Z,97761.00
2022-09-12T20:53:44.122Z,97757.00
2022-09-12T20:56:19.067Z,97765.00
2022-09-12T20:58:55.686Z,97769.00
2022-09-12T21:01:31.635Z,97767.00
2022-09-12T21:04:10.691Z,97765.00
2022-09-12T21:06:47.902Z,97769.00
2022-09-12T21:09:22.993Z,97771.00
2022-09-12T21:11:57.916Z,97766.00
2022-09-12T21:14:32.882Z,97771.00
2022-09-12T21:17:08.161Z,97774.00
2022-09-12T21:19:43.051Z,97771.00
2022-09-12T21:22:18.144Z,97773.00
2022-09-12T21:24:53.011Z,97776.00
2022-09-12T21:27:27.967Z,97778.00
2022-09-12T21:30:04.247Z,97769.00
2022-09-12T21:32:39.289Z,97775.00
2022-09-12T21:35:14.283Z,97767.00
2022-09-12T21:37:53.086Z,97774.00
2022-09-12T21:40:28.359Z,97779.00
2022-09-12T21:43:04.346Z,97784.00
2022-09-12T21:45:39.428Z,97778.00
2022-09-12T21:48:14.294Z,97777.00
2022-09-12T21:50:52.570Z,97757.00
2022-09-12T21:53:27.793Z,97766.00
2022-09-12T21:56:08.251Z,97762.00
2022-09-12T21:58:43.186Z,97761.00
2022-09-12T22:01:18.088Z,97768.00
2022-09-12T22:03:53.163Z,97760.00
2022-09-12T22:06:28.037Z,97762.00
2022-09-12T22:09:04.945Z,97757.00
2022-09-12T22:11:39.883Z,97754.00
2022-09-12T22:14:14.823Z,97748.00
2022-09-12T22:16:49.740Z,97747.00
2022-09-12T22:19:24.931Z,97740.00
2022-09-12T22:22:18.940Z,97741.00
2022-09-12T22:24:53.863Z,97736.00
2022-09-12T22:27:28.854Z,97739.00
2022-09-12T22:30:04.337Z,97726.00
2022-09-12T22:32:39.254Z,97722.00
2022-09-12T22:35:15.293Z,97713.00
2022-09-12T22:37:50.257Z,97711.00
2022-09-12T22:40:25.313Z,97704.00
2022-09-12T22:43:01.233Z,97708.00
2022-09-12T22:45:36.226Z,97707.00
2022-09-12T22:48:11.114Z,97705.00
2022-09-12T22:50:46.096Z,97699.00
2022-09-12T22:53:21.000Z,97706.00
2022-09-12T22:55:55.944Z,97706.00
2022-09-12T22:58:31.580Z,97709.00
2022-09-12T23:01:07.436Z,97717.00
2022-09-12T23:03:42.486Z,97711.00
2022-09-12T23:06:17.579Z,97718.00
2022-09-12T23:08:52.885Z,97717.00
2022-09-12T23:11:28.048Z,97718.00
2022-09-12T23:14:04.020Z,97721.00
2022-09-12T23:16:39.144Z,97721.00
2022-09-12T23:19:14.111Z,97719.00
2022-09-12T23:21:49.088Z,97727.00
2022-09-12T23:24:24.055Z,97731.00
2022-09-12T23:26:59.789Z,97727.00
2022-09-12T23:29:35.360Z,97721.00
2022-09-12T23:32:10.818Z,97718.00
2022-09-12T23:34:46.720Z,97715.00
2022-09-12T23:37:21.714Z,97719.00
2022-09-12T23:39:56.712Z,97718.00
2022-09-12T23:42:31.718Z,97710.00
2022-09-12T23:45:07.256Z,97698.00
2022-09-12T23:47:42.250Z,97700.00
2022-09-12T23:50:17.204Z,97689.00
2022-09-12T23:52:52.266Z,97693.00
2022-09-12T23:55:27.187Z,97692.00
2022-09-12T23:58:02.206Z,97685.00
